Time;durP1;ratioP1;P1;durP2;ratioP2;P2;SDS_P1;SDS_P2;PMS_P1;PMS_P2;Temp;Humidity;BMP_temperature;BMP_pressure;BME280_temperature;BME280_humidity;BME280_pressure;Samples;Min_cycle;Max_cycle;Signal;HPM_P1;HPM_P2
2021/08/18 00:00:40;;;;;;;;;;;;;;;21.83;59.69;96655.16;220409;263;98950;-48
2021/08/18 00:01:41;;;;;;;;;;;;;;;21.80;59.79;96662.75;220709;263;98959;-45
2021/08/18 00:02:42;;;;;;;;;;;;;;;21.79;59.83;96660.31;220396;263;98971;-49
2021/08/18 00:03:44;;;;;;;;;;;;;;;21.81;59.85;96664.94;220074;263;99446;-45
2021/08/18 00:04:45;;;;;;;;;;;;;;;21.83;59.71;96664.81;221003;262;97969;-45
2021/08/18 00:05:46;;;;;;;;;;;;;;;21.82;59.71;96657.69;219443;263;189287;-43
2021/08/18 00:06:48;;;;;;;;;;;;;;;21.89;59.56;96660.66;220713;262;276001;-51
2021/08/18 00:07:49;;;;;;;;;;;;;;;21.92;59.48;96658.61;220793;262;194899;-46
2021/08/18 00:08:50;;;;;;;;;;;;;;;21.95;59.45;96658.49;220465;262;192271;-45
2021/08/18 00:09:52;;;;;;;;;;;;;;;21.90;59.55;96658.16;220547;262;98941;-45
2021/08/18 00:10:53;;;;;;;;;;;;;;;21.84;59.67;96654.00;220333;262;98955;-45
2021/08/18 00:11:54;;;;;;;;;;;;;;;21.81;59.76;96661.59;220543;262;100253;-45
2021/08/18 00:12:56;;;;;;;;;;;;;;;21.81;59.77;96653.33;220306;262;97991;-53
2021/08/18 00:13:57;;;;;;;;;;;;;;;21.82;59.74;96657.69;220511;262;97597;-47
2021/08/18 00:14:58;;;;;;;;;;;;;;;21.80;59.77;96659.99;220557;262;97988;-48
2021/08/18 00:16:00;;;;;;;;;;;;;;;21.82;59.76;96661.02;220116;262;98013;-52
2021/08/18 00:17:01;;;;;;;;;;;;;;;21.81;59.76;96657.46;220347;262;98939;-49
2021/08/18 00:18:03;;;;;;;;;;;;;;;21.84;59.73;96649.86;220980;262;190193;-46
2021/08/18 00:19:04;;;;;;;;;;;;;;;21.88;59.64;96653.53;220868;262;275556;-43
2021/08/18 00:20:06;;;;;;;;;;;;;;;21.85;59.69;96655.61;221004;262;194736;-47
2021/08/18 00:21:07;;;;;;;;;;;;;;;21.86;59.65;96644.80;221005;262;194659;-44
2021/08/18 00:22:08;;;;;;;;;;;;;;;21.83;59.72;96653.78;221347;262;98004;-46
2021/08/18 00:23:10;;;;;;;;;;;;;;;21.82;59.76;96659.64;221087;262;98832;-46
2021/08/18 00:24:11;;;;;;;;;;;;;;;21.80;59.79;96648.95;220572;262;98939;-47
2021/08/18 00:25:12;;;;;;;;;;;;;;;21.80;59.82;96654.47;221725;262;98873;-44
2021/08/18 00:26:14;;;;;;;;;;;;;;;21.78;59.85;96653.19;221782;262;98958;-49
2021/08/18 00:27:15;;;;;;;;;;;;;;;21.77;59.85;96655.14;220558;262;97924;-48
2021/08/18 00:28:16;;;;;;;;;;;;;;;21.77;59.83;96651.58;220175;263;98052;-44
2021/08/18 00:29:18;;;;;;;;;;;;;;;21.80;59.84;96657.23;221360;262;98116;-47
2021/08/18 00:30:19;;;;;;;;;;;;;;;21.81;59.78;96656.08;220739;262;98292;-46
2021/08/18 00:31:21;;;;;;;;;;;;;;;21.84;59.71;96651.25;220969;262;98975;-50
2021/08/18 00:32:22;;;;;;;;;;;;;;;21.84;59.73;96657.34;221515;262;98965;-45
2021/08/18 00:33:23;;;;;;;;;;;;;;;21.86;59.67;96655.84;221703;262;99100;-49
2021/08/18 00:34:25;;;;;;;;;;;;;;;21.82;59.73;96643.09;221377;262;98963;-45
2021/08/18 00:35:26;;;;;;;;;;;;;;;21.79;59.83;96653.41;221552;261;193387;-44
2021/08/18 00:36:27;;;;;;;;;;;;;;;21.76;59.94;96654.91;222272;261;99295;-46
2021/08/18 00:37:29;;;;;;;;;;;;;;;21.76;59.89;96658.25;220532;262;98953;-47
2021/08/18 00:38:30;;;;;;;;;;;;;;;21.76;59.92;96653.53;221174;262;99430;-47
2021/08/18 00:39:31;;;;;;;;;;;;;;;21.79;59.83;96655.59;220148;263;98848;-45
2021/08/18 00:40:33;;;;;;;;;;;;;;;21.79;59.84;96652.84;220130;263;97772;-51
2021/08/18 00:41:34;;;;;;;;;;;;;;;21.80;59.88;96647.58;221219;262;98017;-53
2021/08/18 00:42:35;;;;;;;;;;;;;;;21.81;59.82;96651.94;220566;263;193135;-45
2021/08/18 00:43:37;;;;;;;;;;;;;;;21.82;59.79;96656.31;220949;263;98960;-46
2021/08/18 00:44:38;;;;;;;;;;;;;;;21.84;59.80;96653.20;220656;263;98951;-53
2021/08/18 00:45:39;;;;;;;;;;;;;;;21.80;59.87;96653.09;220793;263;98429;-49
2021/08/18 00:46:41;;;;;;;;;;;;;;;21.82;59.84;96654.93;220648;262;98044;-49
2021/08/18 00:47:42;;;;;;;;;;;;;;;21.83;59.84;96655.16;221691;262;99225;-43
2021/08/18 00:48:43;;;;;;;;;;;;;;;21.81;59.83;96656.08;221550;262;97037;-45
2021/08/18 00:49:45;;;;;;;;;;;;;;;21.82;59.84;96652.17;221074;262;98969;-44
2021/08/18 00:50:46;;;;;;;;;;;;;;;21.82;59.84;96658.27;222069;262;98950;-51
2021/08/18 00:51:47;;;;;;;;;;;;;;;21.79;59.90;96656.97;222519;260;98938;-47
2021/08/18 00:52:49;;;;;;;;;;;;;;;21.76;59.98;96656.87;222850;260;99102;-49
2021/08/18 00:53:50;;;;;;;;;;;;;;;21.78;59.95;96649.05;220467;263;98008;-49
2021/08/18 00:54:51;;;;;;;;;;;;;;;21.75;59.97;96653.88;221377;262;97929;-45
2021/08/18 00:55:53;;;;;;;;;;;;;;;21.75;60.00;96656.64;220109;263;99002;-44
2021/08/18 00:56:54;;;;;;;;;;;;;;;21.74;59.96;96656.41;219531;262;98945;-46
2021/08/18 00:57:55;;;;;;;;;;;;;;;21.77;59.94;96653.76;222185;261;98949;-50
2021/08/18 00:58:57;;;;;;;;;;;;;;;21.80;59.89;96659.16;221599;262;190267;-46
2021/08/18 00:59:58;;;;;;;;;;;;;;;21.80;59.89;96660.53;221178;262;277470;-46
2021/08/18 01:00:59;;;;;;;;;;;;;;;21.81;59.88;96655.28;221012;262;196759;-44
2021/08/18 01:02:01;;;;;;;;;;;;;;;21.80;59.87;96657.23;221036;262;193341;-44
2021/08/18 01:03:02;;;;;;;;;;;;;;;21.76;59.95;96659.62;220559;262;97764;-44
2021/08/18 01:04:03;;;;;;;;;;;;;;;21.78;59.95;96658.12;220133;262;188334;-44
2021/08/18 01:05:05;;;;;;;;;;;;;;;21.73;60.04;96659.74;220361;262;275529;-45
2021/08/18 01:06:06;;;;;;;;;;;;;;;21.73;60.04;96663.08;220786;262;195136;-48
2021/08/18 01:07:07;;;;;;;;;;;;;;;21.77;60.00;96653.76;220482;262;193377;-52
2021/08/18 01:08:09;;;;;;;;;;;;;;;21.80;59.90;96661.38;220587;262;98969;-52
2021/08/18 01:09:10;;;;;;;;;;;;;;;21.81;59.88;96659.41;220302;262;97924;-47
2021/08/18 01:10:11;;;;;;;;;;;;;;;21.80;59.83;96658.61;220868;263;97995;-42
2021/08/18 01:11:13;;;;;;;;;;;;;;;21.78;59.94;96653.98;221471;262;98008;-46
2021/08/18 01:12:14;;;;;;;;;;;;;;;21.78;59.92;96661.46;221485;262;97062;-46
2021/08/18 01:13:15;;;;;;;;;;;;;;;21.74;60.05;96657.80;221109;260;98938;-44
2021/08/18 01:14:20;;;;;;;;;;;;;;;21.76;60.00;96656.87;221710;260;98925;-47
2021/08/18 01:15:21;;;;;;;;;;;;;;;21.77;59.97;96659.28;220867;262;97919;-45
2021/08/18 01:16:22;;;;;;;;;;;;;;;21.77;59.93;96660.66;221518;262;98080;-45
2021/08/18 01:17:24;;;;;;;;;;;;;;;21.78;59.92;96658.12;221903;262;98006;-47
2021/08/18 01:18:25;;;;;;;;;;;;;;;21.78;59.94;96658.70;221784;262;188400;-50
2021/08/18 01:19:26;;;;;;;;;;;;;;;21.76;59.97;96656.30;221507;262;276190;-47
2021/08/18 01:20:28;;;;;;;;;;;;;;;21.76;59.96;96654.91;221904;261;194979;-44
2021/08/18 01:21:29;;;;;;;;;;;;;;;21.72;60.06;96663.66;222548;260;193468;-45
2021/08/18 01:22:30;;;;;;;;;;;;;;;21.73;60.11;96661.13;223061;260;98959;-51
2021/08/18 01:23:32;;;;;;;;;;;;;;;21.70;60.17;96656.88;222815;260;98063;-49
2021/08/18 01:24:33;;;;;;;;;;;;;;;21.73;60.08;96651.47;222918;260;98003;-45
2021/08/18 01:25:34;;;;;;;;;;;;;;;21.74;60.07;96653.08;222880;260;98050;-43
2021/08/18 01:26:36;;;;;;;;;;;;;;;21.75;60.00;96653.30;223133;260;99004;-45
2021/08/18 01:27:37;;;;;;;;;;;;;;;21.75;60.02;96651.12;222837;260;99567;-48
2021/08/18 01:28:38;;;;;;;;;;;;;;;21.77;59.98;96649.63;222768;260;98956;-47
2021/08/18 01:29:40;;;;;;;;;;;;;;;21.75;60.04;96652.50;223062;260;98868;-47
2021/08/18 01:30:41;;;;;;;;;;;;;;;21.76;59.96;96648.59;222846;260;98003;-46
2021/08/18 01:31:42;;;;;;;;;;;;;;;21.69;60.09;96646.39;223062;260;97991;-50
2021/08/18 01:32:44;;;;;;;;;;;;;;;21.73;60.07;96652.05;222852;260;97128;-45
2021/08/18 01:33:45;;;;;;;;;;;;;;;21.78;59.95;96654.56;222978;260;98940;-44
2021/08/18 01:34:46;;;;;;;;;;;;;;;21.80;59.93;96645.36;222747;260;98994;-50
2021/08/18 01:35:48;;;;;;;;;;;;;;;21.77;59.97;96648.25;222744;260;99018;-47
2021/08/18 01:36:49;;;;;;;;;;;;;;;21.75;60.03;96646.41;222671;260;98871;-49
2021/08/18 01:37:50;;;;;;;;;;;;;;;21.72;60.10;96643.55;219796;263;190377;-45
2021/08/18 01:38:52;;;;;;;;;;;;;;;21.70;60.16;96645.27;222017;260;277479;-45
2021/08/18 01:39:53;;;;;;;;;;;;;;;21.71;60.14;96651.02;220476;261;195532;-45
2021/08/18 01:40:54;;;;;;;;;;;;;;;21.72;60.08;96648.48;221688;261;194266;-47
2021/08/18 01:41:56;;;;;;;;;;;;;;;21.74;60.07;96650.31;221493;262;97984;-49
2021/08/18 01:42:57;;;;;;;;;;;;;;;21.81;59.96;96642.86;221097;262;100306;-49
2021/08/18 01:43:58;;;;;;;;;;;;;;;21.78;60.00;96645.71;221703;262;98909;-45
2021/08/18 01:45:00;;;;;;;;;;;;;;;21.76;60.05;96643.88;222480;261;99018;-45
2021/08/18 01:46:01;;;;;;;;;;;;;;;21.73;60.15;96639.63;219820;262;97967;-47
2021/08/18 01:47:02;;;;;;;;;;;;;;;21.72;60.22;96645.73;219777;263;97988;-48
2021/08/18 01:48:04;;;;;;;;;;;;;;;21.69;60.25;96641.45;221491;262;98036;-45
2021/08/18 01:49:05;;;;;;;;;;;;;;;21.69;60.29;96642.25;221886;262;98978;-48
2021/08/18 01:50:07;;;;;;;;;;;;;;;21.66;60.33;96641.56;220832;263;98951;-48
2021/08/18 01:51:08;;;;;;;;;;;;;;;21.65;60.32;96643.52;222288;261;98016;-49
2021/08/18 01:52:09;;;;;;;;;;;;;;;21.69;60.30;96646.39;219117;263;97259;-44
2021/08/18 01:53:10;;;;;;;;;;;;;;;21.68;60.29;96642.02;219890;263;98942;-48
2021/08/18 01:54:13;;;;;;;;;;;;;;;21.69;60.27;96642.25;220816;262;98949;-46
2021/08/18 01:55:14;;;;;;;;;;;;;;;21.71;60.25;96639.98;221318;262;193350;-50
2021/08/18 01:56:20;;;;;;;;;;;;;;;21.73;60.20;96650.09;221867;262;97986;-50
2021/08/18 01:57:19;;;;;;;;;;;;;;;21.74;60.22;96642.05;220472;262;69822;-47
2021/08/18 01:58:20;;;;;;;;;;;;;;;21.73;60.21;96643.19;220924;262;98926;-50
2021/08/18 01:59:26;;;;;;;;;;;;;;;21.72;60.20;96647.10;220538;263;98938;-46
2021/08/18 02:00:24;;;;;;;;;;;;;;;21.69;60.29;96650.53;220780;262;247262;-47
2021/08/18 02:01:26;;;;;;;;;;;;;;;21.67;60.33;96641.80;220339;262;194948;-46
2021/08/18 02:02:27;;;;;;;;;;;;;;;21.74;60.25;96653.66;219972;264;195008;-47
2021/08/18 02:03:29;;;;;;;;;;;;;;;21.75;60.16;96642.27;220154;262;98959;-45
2021/08/18 02:04:30;;;;;;;;;;;;;;;21.72;60.25;96648.48;220399;262;99057;-51
2021/08/18 02:05:31;;;;;;;;;;;;;;;21.69;60.31;96642.25;221730;262;98003;-48
2021/08/18 02:06:33;;;;;;;;;;;;;;;21.68;60.34;96641.22;221628;262;98036;-46
2021/08/18 02:07:34;;;;;;;;;;;;;;;21.65;60.38;96644.91;221679;262;98026;-51
2021/08/18 02:08:35;;;;;;;;;;;;;;;21.68;60.31;96639.84;220251;263;96519;-47
2021/08/18 02:09:37;;;;;;;;;;;;;;;21.65;60.43;96644.91;221246;262;193568;-45
2021/08/18 02:10:38;;;;;;;;;;;;;;;21.67;60.41;96644.55;220944;262;98950;-51
2021/08/18 02:11:39;;;;;;;;;;;;;;;21.69;60.38;96647.77;220198;262;100204;-45
2021/08/18 02:12:41;;;;;;;;;;;;;;;21.71;60.38;96645.50;220508;262;97956;-45
2021/08/18 02:13:42;;;;;;;;;;;;;;;21.70;60.36;96644.47;220248;262;97679;-45
2021/08/18 02:14:44;;;;;;;;;;;;;;;21.68;60.37;96643.41;220445;262;97937;-46
2021/08/18 02:15:45;;;;;;;;;;;;;;;21.72;60.33;96641.59;220277;262;97089;-48
2021/08/18 02:16:46;;;;;;;;;;;;;;;21.75;60.29;96640.89;220252;262;99086;-51
2021/08/18 02:17:48;;;;;;;;;;;;;;;21.79;60.18;96630.77;220500;262;99424;-53
2021/08/18 02:18:49;;;;;;;;;;;;;;;21.79;60.21;96632.14;220253;262;99065;-49
2021/08/18 02:19:50;;;;;;;;;;;;;;;21.78;60.20;96641.58;220503;262;98104;-47
2021/08/18 02:20:52;;;;;;;;;;;;;;;21.77;60.29;96638.59;220311;262;97961;-45
2021/08/18 02:21:53;;;;;;;;;;;;;;;21.76;60.30;96635.60;220524;262;97044;-46
2021/08/18 02:22:54;;;;;;;;;;;;;;;21.70;60.42;96634.81;220066;262;99052;-45
2021/08/18 02:23:56;;;;;;;;;;;;;;;21.68;60.52;96635.13;220090;262;98986;-46
2021/08/18 02:24:57;;;;;;;;;;;;;;;21.65;60.62;96634.45;220511;262;98921;-45
2021/08/18 02:25:58;;;;;;;;;;;;;;;21.63;60.62;96632.03;220303;262;98129;-47
2021/08/18 02:27:00;;;;;;;;;;;;;;;21.67;60.54;96626.63;220098;263;97636;-45
2021/08/18 02:28:01;;;;;;;;;;;;;;;21.68;60.49;96630.19;219948;263;97064;-45
2021/08/18 02:29:03;;;;;;;;;;;;;;;21.65;60.56;96626.17;222078;260;98873;-44
2021/08/18 02:30:04;;;;;;;;;;;;;;;21.67;60.56;96630.77;220842;262;98945;-49
2021/08/18 02:31:06;;;;;;;;;;;;;;;21.66;60.58;96625.83;220764;262;194194;-44
2021/08/18 02:32:08;;;;;;;;;;;;;;;21.66;60.59;96627.20;220551;262;99002;-53
2021/08/18 02:33:09;;;;;;;;;;;;;;;21.66;60.58;96626.41;220256;262;98824;-45
2021/08/18 02:34:12;;;;;;;;;;;;;;;21.71;60.49;96627.57;220726;260;98980;-44
2021/08/18 02:35:13;;;;;;;;;;;;;;;21.76;60.46;96620.43;221786;260;190371;-48
2021/08/18 02:36:15;;;;;;;;;;;;;;;21.76;60.40;96627.91;219715;264;277561;-45
2021/08/18 02:37:16;;;;;;;;;;;;;;;21.70;60.50;96621.83;220094;263;195643;-50
2021/08/18 02:38:17;;;;;;;;;;;;;;;21.71;60.57;96626.19;221722;262;195261;-49
2021/08/18 02:39:19;;;;;;;;;;;;;;;21.75;60.46;96616.06;222144;261;98934;-48
2021/08/18 02:40:20;;;;;;;;;;;;;;;21.74;60.46;96624.12;221572;261;190928;-46
2021/08/18 02:41:21;;;;;;;;;;;;;;;21.72;60.59;96625.04;221375;262;275313;-47
2021/08/18 02:42:23;;;;;;;;;;;;;;;21.71;60.58;96622.05;221487;262;194925;-47
2021/08/18 02:43:24;;;;;;;;;;;;;;;21.74;60.49;96628.25;221413;262;193522;-43
2021/08/18 02:44:25;;;;;;;;;;;;;;;21.71;60.53;96626.19;221646;262;99088;-45
2021/08/18 02:45:27;;;;;;;;;;;;;;;21.66;60.63;96624.45;221516;262;97987;-44
2021/08/18 02:46:28;;;;;;;;;;;;;;;21.69;60.56;96629.84;221798;262;98034;-49
2021/08/18 02:47:29;;;;;;;;;;;;;;;21.70;60.54;96629.30;221035;262;97890;-44
2021/08/18 02:48:31;;;;;;;;;;;;;;;21.72;60.50;96628.38;220782;263;98023;-49
2021/08/18 02:49:32;;;;;;;;;;;;;;;21.70;60.50;96630.09;221578;262;98981;-43
2021/08/18 02:50:33;;;;;;;;;;;;;;;21.69;60.53;96631.22;221552;262;98829;-45
2021/08/18 02:51:35;;;;;;;;;;;;;;;21.65;60.59;96633.06;221880;262;98932;-44
2021/08/18 02:52:36;;;;;;;;;;;;;;;21.67;60.60;96630.77;220729;262;98029;-51
2021/08/18 02:53:37;;;;;;;;;;;;;;;21.66;60.62;96629.16;220579;263;98245;-44
2021/08/18 02:54:39;;;;;;;;;;;;;;;21.65;60.65;96622.84;219536;264;97976;-48
2021/08/18 02:55:40;;;;;;;;;;;;;;;21.69;60.60;96620.19;221512;262;96642;-50
2021/08/18 02:56:41;;;;;;;;;;;;;;;21.69;60.58;96624.91;220911;262;98853;-45
2021/08/18 02:57:43;;;;;;;;;;;;;;;21.68;60.61;96621.34;220760;262;98938;-45
2021/08/18 02:58:44;;;;;;;;;;;;;;;21.69;60.59;96620.19;221598;261;100195;-45
2021/08/18 02:59:58;;;;;;;;;;;;;;;21.86;60.39;96619.98;226932;255;69045;-60
2021/08/18 03:00:59;;;;;;;;;;;;;;;21.90;60.27;96613.19;223700;259;190376;-57
2021/08/18 03:02:01;;;;;;;;;;;;;;;21.83;60.42;96615.16;222630;260;275301;-52
2021/08/18 03:03:02;;;;;;;;;;;;;;;21.94;60.40;96612.16;222527;261;196569;-55
2021/08/18 03:04:03;;;;;;;;;;;;;;;21.92;60.24;96611.71;222459;261;193347;-62
2021/08/18 03:05:05;;;;;;;;;;;;;;;22.03;60.18;96615.38;223039;261;98940;-60
2021/08/18 03:06:40;;;;;;;;;;;;;;;21.93;60.20;96616.08;227265;255;69049;-58
2021/08/18 03:07:41;;;;;;;;;;;;;;;21.87;60.33;96620.78;222959;260;188388;-57
2021/08/18 03:08:42;;;;;;;;;;;;;;;21.85;60.43;96617.56;223384;259;276622;-63
2021/08/18 03:09:44;;;;;;;;;;;;;;;21.92;60.38;96612.28;223118;259;194936;-62
2021/08/18 03:10:45;;;;;;;;;;;;;;;21.93;60.21;96614.70;224021;258;193344;-65
2021/08/18 03:11:46;;;;;;;;;;;;;;;21.97;60.15;96611.23;224408;258;98992;-61
2021/08/18 03:12:48;;;;;;;;;;;;;;;21.96;60.13;96611.81;223832;259;190347;-61
2021/08/18 03:13:49;;;;;;;;;;;;;;;21.94;60.20;96614.12;222450;260;277770;-62
2021/08/18 03:18:48;;;;;;;;;;;;;;;21.99;60.14;96603.41;220645;261;157323;-62
2021/08/18 03:19:50;;;;;;;;;;;;;;;22.05;60.03;96606.17;223749;258;100212;-59
2021/08/18 03:20:51;;;;;;;;;;;;;;;22.05;59.97;96609.73;223585;259;99019;-63
2021/08/18 03:21:52;;;;;;;;;;;;;;;22.04;59.97;96608.71;223385;260;99407;-64
2021/08/18 03:22:54;;;;;;;;;;;;;;;22.02;59.99;96605.50;223218;259;98945;-62
2021/08/18 03:23:55;;;;;;;;;;;;;;;21.99;60.12;96607.55;223721;259;99061;-61
2021/08/18 03:38:55;;;;;;;;;;;;;;;22.22;59.77;96594.34;226150;255;70654;-59
2021/08/18 03:39:57;;;;;;;;;;;;;;;22.15;60.03;96591.36;224792;258;190252;-60
2021/08/18 03:40:58;;;;;;;;;;;;;;;22.09;59.87;96589.17;221969;261;275599;-56
2021/08/18 03:41:59;;;;;;;;;;;;;;;22.12;59.96;96596.20;222931;260;195900;-60
2021/08/18 03:43:01;;;;;;;;;;;;;;;22.07;60.09;96592.28;221841;260;192143;-55
2021/08/18 03:44:02;;;;;;;;;;;;;;;21.92;60.44;96592.39;222124;261;99454;-61
2021/08/18 03:45:03;;;;;;;;;;;;;;;22.04;60.19;96592.95;222946;260;189702;-49
2021/08/18 03:46:05;;;;;;;;;;;;;;;22.15;60.10;96591.94;222738;260;277670;-55
2021/08/18 03:47:06;;;;;;;;;;;;;;;22.23;59.81;96588.25;222281;260;195642;-48
2021/08/18 03:48:07;;;;;;;;;;;;;;;21.99;61.48;96589.61;222031;261;194212;-52
2021/08/18 03:49:09;;;;;;;;;;;;;;;22.02;60.42;96590.33;222503;261;98083;-53
2021/08/18 03:50:10;;;;;;;;;;;;;;;22.16;60.17;96586.06;222240;261;98950;-50
2021/08/18 03:51:11;;;;;;;;;;;;;;;22.23;59.95;96584.91;221144;262;98960;-52
2021/08/18 03:52:13;;;;;;;;;;;;;;;22.17;59.94;96581.34;221194;262;98075;-50
2021/08/18 03:53:14;;;;;;;;;;;;;;;22.17;59.85;96583.53;223148;261;98012;-49
2021/08/18 03:54:16;;;;;;;;;;;;;;;22.14;61.33;96586.99;222776;261;98867;-47
2021/08/18 03:55:17;;;;;;;;;;;;;;;22.12;60.26;96584.36;222818;261;194281;-49
2021/08/18 03:56:18;;;;;;;;;;;;;;;22.20;60.06;96585.59;223128;261;98945;-54
2021/08/18 03:57:20;;;;;;;;;;;;;;;22.31;59.84;96586.48;222947;261;99518;-51
2021/08/18 03:58:21;;;;;;;;;;;;;;;22.34;59.80;96589.38;223119;260;98969;-53
2021/08/18 03:59:22;;;;;;;;;;;;;;;22.39;59.63;96591.88;222917;261;98776;-54
2021/08/18 04:00:24;;;;;;;;;;;;;;;22.13;60.87;96594.25;223185;261;99049;-50
2021/08/18 04:01:25;;;;;;;;;;;;;;;22.30;60.17;96595.92;222910;261;98960;-46
2021/08/18 04:02:26;;;;;;;;;;;;;;;22.33;59.88;96588.31;222804;260;98937;-48
2021/08/18 04:03:28;;;;;;;;;;;;;;;22.42;59.62;96595.31;222867;261;97972;-51
2021/08/18 04:04:29;;;;;;;;;;;;;;;22.36;59.98;96593.97;222692;261;98944;-49
2021/08/18 04:05:30;;;;;;;;;;;;;;;22.37;59.85;96602.47;223126;261;98943;-51
2021/08/18 04:06:32;;;;;;;;;;;;;;;22.48;59.76;96597.27;222774;261;98003;-50
2021/08/18 04:07:33;;;;;;;;;;;;;;;22.45;59.42;96596.59;223058;261;97938;-48
2021/08/18 04:08:34;;;;;;;;;;;;;;;22.46;59.40;96597.62;222883;261;97346;-49
2021/08/18 04:09:36;;;;;;;;;;;;;;;22.49;59.45;96601.05;222848;261;98961;-49
2021/08/18 04:10:37;;;;;;;;;;;;;;;22.44;59.34;96597.17;223156;261;98960;-51
2021/08/18 04:11:38;;;;;;;;;;;;;;;22.48;59.38;96596.69;222779;261;191531;-50
2021/08/18 04:12:40;;;;;;;;;;;;;;;22.55;59.32;96593.92;222439;260;276202;-52
2021/08/18 04:13:41;;;;;;;;;;;;;;;22.47;59.25;96598.42;221856;261;195581;-50
2021/08/18 04:14:42;;;;;;;;;;;;;;;22.42;59.37;96599.45;222015;261;195007;-50
2021/08/18 04:15:44;;;;;;;;;;;;;;;22.48;59.42;96603.59;222165;261;97975;-48
2021/08/18 04:16:45;;;;;;;;;;;;;;;22.48;59.35;96603.59;223107;260;99016;-49
2021/08/18 04:17:46;;;;;;;;;;;;;;;22.49;59.24;96601.05;222934;260;98973;-47
2021/08/18 04:18:48;;;;;;;;;;;;;;;22.55;59.22;96603.01;222523;261;98957;-51
2021/08/18 04:19:49;;;;;;;;;;;;;;;22.58;59.11;96611.16;222794;261;98972;-51
2021/08/18 04:20:50;;;;;;;;;;;;;;;22.47;60.51;96606.12;222553;261;98106;-48
2021/08/18 04:21:52;;;;;;;;;;;;;;;22.56;59.35;96603.81;222468;261;193469;-50
2021/08/18 04:22:53;;;;;;;;;;;;;;;22.40;59.38;96600.38;222476;261;98944;-49
2021/08/18 04:23:55;;;;;;;;;;;;;;;22.37;59.82;96595.56;222381;261;98010;-47
2021/08/18 04:24:56;;;;;;;;;;;;;;;22.38;59.61;96602.70;222298;261;98002;-53
2021/08/18 04:25:57;;;;;;;;;;;;;;;22.26;60.26;96606.87;221964;261;98357;-50
2021/08/18 04:26:58;;;;;;;;;;;;;;;22.34;59.90;96603.17;222580;261;99005;-47
2021/08/18 04:28:00;;;;;;;;;;;;;;;22.29;64.13;96608.13;220194;262;98878;-48
2021/08/18 04:29:01;;;;;;;;;;;;;;;22.28;60.36;96605.94;220692;262;98953;-50
2021/08/18 04:30:02;;;;;;;;;;;;;;;22.38;60.03;96602.70;222328;261;98956;-48
2021/08/18 04:31:04;;;;;;;;;;;;;;;22.46;59.73;96609.24;222644;261;190331;-50
2021/08/18 04:32:05;;;;;;;;;;;;;;;22.44;59.71;96604.08;222179;261;276508;-56
2021/08/18 04:33:07;;;;;;;;;;;;;;;22.34;59.87;96604.56;222874;260;195616;-62
2021/08/18 04:34:08;;;;;;;;;;;;;;;22.46;59.63;96612.81;222784;260;193306;-52
2021/08/18 04:35:09;;;;;;;;;;;;;;;22.60;59.32;96607.47;222088;261;98924;-54
2021/08/18 04:36:11;;;;;;;;;;;;;;;22.59;59.30;96605.86;222204;261;98013;-55
2021/08/18 04:37:12;;;;;;;;;;;;;;;22.56;59.34;96607.38;222409;261;97971;-64
2021/08/18 04:38:13;;;;;;;;;;;;;;;22.50;59.39;96614.28;222226;261;98060;-60
2021/08/18 04:39:15;;;;;;;;;;;;;;;22.50;59.46;96608.19;222337;261;97202;-47
2021/08/18 04:40:16;;;;;;;;;;;;;;;22.50;59.51;96613.70;222294;261;99441;-49
2021/08/18 04:41:17;;;;;;;;;;;;;;;22.52;59.51;96614.16;222012;261;194253;-50
2021/08/18 04:42:19;;;;;;;;;;;;;;;22.56;59.51;96613.48;222330;261;99014;-46
2021/08/18 04:43:20;;;;;;;;;;;;;;;22.45;60.02;96620.87;221531;262;189368;-50
2021/08/18 04:44:21;;;;;;;;;;;;;;;22.46;59.65;96617.53;221891;261;275595;-47
2021/08/18 04:45:23;;;;;;;;;;;;;;;22.42;60.53;96611.08;223329;260;194866;-54
2021/08/18 04:46:24;;;;;;;;;;;;;;;22.41;59.78;96615.80;222302;261;194115;-52
2021/08/18 04:47:26;;;;;;;;;;;;;;;22.47;59.84;96617.75;222455;261;98957;-51
2021/08/18 04:48:27;;;;;;;;;;;;;;;22.42;59.80;96613.26;222264;261;98098;-46
2021/08/18 04:49:28;;;;;;;;;;;;;;;22.42;59.66;96609.12;222470;261;98949;-47
2021/08/18 04:50:30;;;;;;;;;;;;;;;22.50;59.60;96614.28;222231;261;99527;-50
2021/08/18 04:51:31;;;;;;;;;;;;;;;22.33;60.12;96615.38;222490;261;99501;-49
2021/08/18 04:52:32;;;;;;;;;;;;;;;22.44;59.82;96612.36;222233;261;97977;-48
2021/08/18 04:53:35;;;;;;;;;;;;;;;22.48;59.67;96609.11;221953;261;193422;-48
2021/08/18 04:54:36;;;;;;;;;;;;;;;22.32;60.26;96612.36;222198;261;98949;-48
2021/08/18 04:55:37;;;;;;;;;;;;;;;22.37;60.08;96606.61;222074;261;99131;-50
2021/08/18 04:56:39;;;;;;;;;;;;;;;22.25;60.84;96616.88;223271;260;98889;-48
2021/08/18 04:57:40;;;;;;;;;;;;;;;22.41;60.17;96606.70;222915;260;97950;-55
2021/08/18 04:58:41;;;;;;;;;;;;;;;22.45;59.86;96609.82;223163;261;98010;-48
2021/08/18 04:59:43;;;;;;;;;;;;;;;22.39;59.82;96608.44;222739;261;193793;-57
2021/08/18 05:00:44;;;;;;;;;;;;;;;22.50;60.83;96601.86;222792;261;193034;-62
2021/08/18 05:01:45;;;;;;;;;;;;;;;22.55;60.03;96603.59;222859;260;98932;-64
2021/08/18 05:02:47;;;;;;;;;;;;;;;22.40;59.96;96606.48;222515;261;98080;-60
2021/08/18 05:03:48;;;;;;;;;;;;;;;22.49;59.94;96601.63;222852;261;97979;-63
2021/08/18 05:04:49;;;;;;;;;;;;;;;22.49;59.95;96596.91;222813;260;98004;-62
2021/08/18 05:05:51;;;;;;;;;;;;;;;22.53;59.73;96598.39;223112;260;100346;-63
2021/08/18 05:06:52;;;;;;;;;;;;;;;22.27;60.70;96593.29;222908;261;98973;-59
2021/08/18 05:07:56;;;;;;;;;;;;;;;22.44;60.00;96593.61;222820;261;98997;-56
2021/08/18 05:08:56;;;;;;;;;;;;;;;22.65;59.88;96598.38;222980;260;68478;-63
2021/08/18 05:09:58;;;;;;;;;;;;;;;22.62;59.49;96594.11;222881;261;99030;-51
2021/08/18 05:10:59;;;;;;;;;;;;;;;22.55;60.11;96598.06;223032;260;98961;-56
2021/08/18 05:12:00;;;;;;;;;;;;;;;22.54;59.94;96594.47;222528;261;98792;-54
2021/08/18 05:13:02;;;;;;;;;;;;;;;22.53;59.84;96595.63;222312;261;277657;-55
2021/08/18 05:14:03;;;;;;;;;;;;;;;22.61;59.75;96599.41;222610;260;196184;-58
2021/08/18 05:15:04;;;;;;;;;;;;;;;22.68;59.34;96596.86;222903;260;193909;-47
2021/08/18 05:16:06;;;;;;;;;;;;;;;22.52;60.19;96595.40;223091;260;98090;-46
2021/08/18 05:17:07;;;;;;;;;;;;;;;22.50;59.90;96599.90;222901;260;190290;-47
2021/08/18 05:18:08;;;;;;;;;;;;;;;22.52;59.93;96600.34;222189;260;275728;-48
2021/08/18 05:19:10;;;;;;;;;;;;;;;22.44;59.90;96598.55;221653;262;193750;-47
2021/08/18 05:20:12;;;;;;;;;;;;;;;22.44;59.98;96609.59;220738;262;193548;-49
2021/08/18 05:21:14;;;;;;;;;;;;;;;22.38;60.03;96604.08;221903;261;98886;-52
2021/08/18 05:22:15;;;;;;;;;;;;;;;22.49;59.88;96603.81;221720;262;97938;-46
2021/08/18 05:23:16;;;;;;;;;;;;;;;22.39;59.93;96604.30;221865;261;98032;-49
2021/08/18 05:24:18;;;;;;;;;;;;;;;22.28;60.92;96610.08;221442;262;97623;-48
2021/08/18 05:25:20;;;;;;;;;;;;;;;22.35;60.23;96602.59;221768;261;278157;-51
2021/08/18 05:26:21;;;;;;;;;;;;;;;22.44;60.12;96600.52;222265;260;195587;-47
2021/08/18 05:27:23;;;;;;;;;;;;;;;22.42;59.98;96598.07;221813;262;193801;-51
2021/08/18 05:28:24;;;;;;;;;;;;;;;22.41;59.95;96601.98;222235;261;97958;-49
2021/08/18 05:29:25;;;;;;;;;;;;;;;22.42;60.01;96598.07;222220;261;98938;-51
2021/08/18 05:30:27;;;;;;;;;;;;;;;22.47;59.92;96606.12;222420;261;98922;-47
2021/08/18 05:31:28;;;;;;;;;;;;;;;22.37;59.98;96605.81;222154;261;98950;-50
2021/08/18 05:32:29;;;;;;;;;;;;;;;22.41;59.99;96604.75;222391;261;98994;-49
2021/08/18 05:33:31;;;;;;;;;;;;;;;22.46;59.84;96602.34;221735;261;98033;-53
2021/08/18 05:34:32;;;;;;;;;;;;;;;22.40;59.98;96610.63;221273;262;192046;-48
2021/08/18 05:35:33;;;;;;;;;;;;;;;22.34;60.09;96603.76;221729;261;100291;-52
2021/08/18 05:36:35;;;;;;;;;;;;;;;22.41;60.09;96613.03;222594;259;189796;-49